Have a Safe July 4th! 

Flight Track Log - Related Links

Times and Time Zones

All times are in EDT time to prevent confusion due to time zone crossing. See the EJA941 flight status page for this flight to view local times or setup timezone preferences in your user account.

Time Position Orientation Groundspeed Altitude Reporting Facility
EDT Latitude Longitude Course Direction KTS MPH feet Rate Location/Type
Fri 02:19:24 PM 34.0000 -118.5892 270° West 261 300 6,000  Level Los Angeles Center
Fri 02:20:26 PM 34.0644 -118.6286 333° Northwest 287 330 7,000 726 Climbing Los Angeles Center
Fri 02:21:28 PM 34.1208 -118.5747 38° Northeast 282 325 7,500 1,872 Climbing Los Angeles Center
Fri 02:22:31 PM 34.1172 -118.4589 92° East 288 331 10,900 2,256 Climbing Los Angeles Center
Fri 02:23:33 PM 34.1844 -118.3936 39° Northeast 348 400 12,200 1,016 Climbing Los Angeles Center
Fri 02:24:35 PM 34.2892 -118.4106 352° North 375 432 13,000 387 Climbing Los Angeles Center
Fri 02:25:37 PM 34.3875 -118.4775 331° Northwest 426 490 13,000 339 Level Los Angeles Center
Fri 02:26:39 PM 34.4822 -118.5461 329° Northwest 398 458 13,700 919 Climbing Los Angeles Center
Fri 02:27:41 PM 34.5725 -118.4872 28° Northeast 380 437 14,900 1,645 Climbing Los Angeles Center
Fri 02:28:43 PM 34.5986 -118.3300 79° East 396 456 17,100 1,887 Climbing Los Angeles Center
Fri 02:29:45 PM 34.6153 -118.1961 81° East 401 461 18,800 1,645 Climbing Los Angeles Center
Fri 02:30:47 PM 34.6314 -118.0611 82° East 414 476 20,500 1,548 Climbing Los Angeles Center
Fri 02:31:49 PM 34.6464 -117.9183 83° East 428 493 22,000 1,355 Climbing Los Angeles Center
Fri 02:32:51 PM 34.6636 -117.7694 82° East 445 512 23,300 1,344 Climbing Los Angeles Center
Fri 02:33:54 PM 34.7078 -117.5886 73° East 470 541 24,800 816 Climbing Los Angeles Center
Fri 02:34:56 PM 34.7469 -117.4311 73° East 490 564 25,000 97 Climbing Los Angeles Center
Fri 02:35:58 PM 34.7892 -117.2653 73° East 516 594 25,000  Level Los Angeles Center
Fri 02:37:00 PM 34.8319 -117.0983 73° East 521 600 25,000  Level Los Angeles Center
Fri 02:38:02 PM 34.8814 -116.8994 73° East 518 596 25,000 48 Level Los Angeles Center
Fri 02:39:04 PM 34.9461 -116.7461 63° Northeast 515 593 25,100  Climbing Los Angeles Center
Fri 02:40:06 PM 34.9997 -116.6256 61° Northeast 511 588 25,000 -290 Descending Los Angeles Center
Fri 02:41:08 PM 35.0811 -116.4456 61° Northeast 508 585 24,500 -726 Descending Los Angeles Center
Fri 02:42:10 PM 35.1703 -116.3139 50° Northeast 506 582 23,500 -1,452 Descending Los Angeles Center
Fri 02:43:12 PM 35.2644 -116.1989 45° Northeast 488 562 21,500 -1,897 Descending Los Angeles Center
Fri 02:44:26 PM 35.3717 -116.0622 46° Northeast 470 541 19,200 -1,927 Descending Los Angeles Center
Fri 02:45:29 PM 35.4775 -115.9311 45° Northeast 458 527 17,100 -2,024 Descending Los Angeles Center
Fri 02:45:49 PM 35.5067 -115.8928 47° Northeast 418 481 16,400 -1,406 Descending Los Angeles Center
Fri 02:46:33 PM 35.5497 -115.8375 46° Northeast 398 458 15,600 -1,377 Descending Los Angeles Center
Fri 02:46:50 PM 35.5744 -115.8053 47° Northeast 351 404 15,000 -1,200 Descending Los Angeles Center
Fri 02:47:33 PM 35.6136 -115.7567 45° Northeast 341 392 14,400 -1,082 Descending Los Angeles Center
Fri 02:47:51 PM 35.6389 -115.7239 46° Northeast 339 390 13,900 -1,258 Descending Los Angeles Center
Fri 02:48:35 PM 35.6856 -115.6633 46° Northeast 381 438 13,100 -885 Descending Los Angeles Center
Fri 02:48:52 PM 35.7156 -115.6278 44° Northeast 393 452 13,000 -97 Descending Los Angeles Center
Fri 02:49:37 PM 35.7903 -115.5731 31° Northeast 403 464 13,000  Level Los Angeles Center
Fri 02:49:52 PM 35.8150 -115.5692 North 406 467 13,000  Level Los Angeles Center
Fri 02:50:40 PM 35.9036 -115.5639 North 405 466 13,000  Level Los Angeles Center
Fri 02:50:59 PM 35.9400 -115.5475 20° North 393 452 13,000 -290 Level Los Angeles Center
Fri 02:51:42 PM 35.9839 -115.4944 44° Northeast 364 419 12,700 -787 Descending Los Angeles Center
Fri 02:52:00 PM 36.0003 -115.4561 62° Northeast 325 374 12,200 -1,258 Descending Los Angeles Center
Fri 02:52:44 PM 36.0211 -115.4006 65° Northeast 329 379 11,400 -1,161 Descending Los Angeles Center
Fri 02:53:02 PM 36.0286 -115.3672 74° East 274 315 11,000 -1,161 Descending Los Angeles Center
Fri 02:53:46 PM 36.0272 -115.3175 92° East 277 319 10,200 -1,034 Descending Los Angeles Center
Fri 02:54:58 PM 36.0169 -115.2036 96° East 245 282 9,000 -823 Descending Los Angeles Center
Fri 02:55:50 PM 36.0133 -115.1350 94° East 244 281 8,500 -526 Descending Los Angeles Center
Fri 02:56:52 PM 36.0100 -115.0686 94° East 211 243 8,000 -242 Descending Los Angeles Center
Fri 02:57:54 PM 36.0400 -115.0189 53° Northeast 205 236 8,000 -581 Level Los Angeles Center
Fri 02:58:56 PM 36.0906 -115.0000 17° North 196 226 6,800 -1,258 Descending Los Angeles Center
Fri 02:59:58 PM 36.1331 -115.0314 329° Northwest 187 215 5,400 -1,440 Descending Los Angeles Center
Fri 03:01:01 PM 36.1436 -115.0917 282° West 162 186 3,800 -1,248 Descending Los Angeles Center
Fri 03:02:03 PM 36.1319 -115.1358 252° West 147 169 2,800 -726 Descending Los Angeles Center
Fri 03:03:05 PM 36.0944 -115.1581 206° Southwest 143 165 2,300 -484 Descending Los Angeles Center
Fri 03:05:00 PM 36.0801 -115.1523 97° East  Level Estimated

Login

Don't have an account? Register now (free) for customized features, flight alerts, and more!